sensor_id;sensor_type;location;lat;lon;timestamp;pressure;altitude;pressure_sealevel;temperature;humidity
54503;BME280;40411;50.090;21.954;2022-11-15T00:01:54;150542.50;;;5.91;100.00
54503;BME280;40411;50.090;21.954;2022-11-15T00:04:38;150557.84;;;5.97;100.00
54503;BME280;40411;50.090;21.954;2022-11-15T00:07:23;150568.00;;;6.01;100.00
54503;BME280;40411;50.090;21.954;2022-11-15T00:10:07;150533.53;;;5.88;100.00
54503;BME280;40411;50.090;21.954;2022-11-15T00:12:52;150559.09;;;5.98;100.00
54503;BME280;40411;50.090;21.954;2022-11-15T00:15:40;150557.84;;;5.97;100.00
54503;BME280;40411;50.090;21.954;2022-11-15T00:18:25;150565.47;;;6.00;100.00
54503;BME280;40411;50.090;21.954;2022-11-15T00:21:11;150566.75;;;6.01;100.00
54503;BME280;40411;50.090;21.954;2022-11-15T00:23:56;150543.75;;;5.92;100.00
54503;BME280;40411;50.090;21.954;2022-11-15T00:26:41;150487.63;;;5.69;100.00
54503;BME280;40411;50.090;21.954;2022-11-15T00:29:26;150462.13;;;5.59;100.00
54503;BME280;40411;50.090;21.954;2022-11-15T00:32:10;150481.25;;;5.67;100.00
54503;BME280;40411;50.090;21.954;2022-11-15T00:34:55;150468.50;;;5.62;100.00
54503;BME280;40411;50.090;21.954;2022-11-15T00:37:39;150495.28;;;5.72;100.00
54503;BME280;40411;50.090;21.954;2022-11-15T00:40:24;150487.63;;;5.69;100.00
54503;BME280;40411;50.090;21.954;2022-11-15T00:43:08;150467.22;;;5.61;100.00
54503;BME280;40411;50.090;21.954;2022-11-15T00:45:53;150420.03;;;5.42;100.00
54503;BME280;40411;50.090;21.954;2022-11-15T00:48:37;150413.66;;;5.40;100.00
54503;BME280;40411;50.090;21.954;2022-11-15T00:51:21;150464.69;;;5.60;100.00
54503;BME280;40411;50.090;21.954;2022-11-15T00:54:06;150474.88;;;5.64;100.00
54503;BME280;40411;50.090;21.954;2022-11-15T00:56:51;150485.06;;;5.68;100.00
54503;BME280;40411;50.090;21.954;2022-11-15T00:59:35;150454.47;;;5.56;100.00
54503;BME280;40411;50.090;21.954;2022-11-15T01:02:20;150463.38;;;5.59;100.00
54503;BME280;40411;50.090;21.954;2022-11-15T01:05:05;150463.38;;;5.59;100.00
54503;BME280;40411;50.090;21.954;2022-11-15T01:07:56;150385.63;;;5.28;100.00
54503;BME280;40411;50.090;21.954;2022-11-15T01:10:40;150399.63;;;5.34;100.00
54503;BME280;40411;50.090;21.954;2022-11-15T01:13:25;150431.53;;;5.47;100.00
54503;BME280;40411;50.090;21.954;2022-11-15T01:16:12;150457.00;;;5.57;100.00
54503;BME280;40411;50.090;21.954;2022-11-15T01:18:57;150464.69;;;5.60;100.00
54503;BME280;40411;50.090;21.954;2022-11-15T01:21:41;150490.16;;;5.70;100.00
54503;BME280;40411;50.090;21.954;2022-11-15T01:24:27;150399.63;;;5.34;100.00
54503;BME280;40411;50.090;21.954;2022-11-15T01:27:11;150454.47;;;5.56;100.00
54503;BME280;40411;50.090;21.954;2022-11-15T01:29:55;150492.75;;;5.71;100.00
54503;BME280;40411;50.090;21.954;2022-11-15T01:32:39;150468.50;;;5.62;100.00
54503;BME280;40411;50.090;21.954;2022-11-15T01:35:24;150385.63;;;5.28;100.00
54503;BME280;40411;50.090;21.954;2022-11-15T01:38:08;150383.09;;;5.27;100.00
54503;BME280;40411;50.090;21.954;2022-11-15T01:40:53;150347.41;;;5.13;100.00
54503;BME280;40411;50.090;21.954;2022-11-15T01:43:39;150267.06;;;4.81;100.00
54503;BME280;40411;50.090;21.954;2022-11-15T01:46:36;150355.03;;;5.16;100.00
54503;BME280;40411;50.090;21.954;2022-11-15T01:49:22;150400.91;;;5.34;100.00
54503;BME280;40411;50.090;21.954;2022-11-15T01:52:13;150398.38;;;5.33;100.00
54503;BME280;40411;50.090;21.954;2022-11-15T01:55:05;150431.53;;;5.47;100.00
54503;BME280;40411;50.090;21.954;2022-11-15T01:57:56;150436.59;;;5.49;100.00
54503;BME280;40411;50.090;21.954;2022-11-15T02:00:42;150455.75;;;5.56;100.00
54503;BME280;40411;50.090;21.954;2022-11-15T02:03:32;150462.13;;;5.59;100.00
54503;BME280;40411;50.090;21.954;2022-11-15T02:06:18;150472.34;;;5.63;100.00
54503;BME280;40411;50.090;21.954;2022-11-15T02:09:04;150371.59;;;5.23;100.00
54503;BME280;40411;50.090;21.954;2022-11-15T02:11:49;150337.16;;;5.09;100.00
54503;BME280;40411;50.090;21.954;2022-11-15T02:14:36;150306.59;;;4.97;100.00
54503;BME280;40411;50.090;21.954;2022-11-15T02:33:26;150365.22;;;5.20;100.00
54503;BME280;40411;50.090;21.954;2022-11-15T02:42:33;150370.31;;;5.22;100.00
54503;BME280;40411;50.090;21.954;2022-11-15T02:45:50;150349.94;;;5.14;100.00
54503;BME280;40411;50.090;21.954;2022-11-15T02:48:36;150347.41;;;5.13;100.00
54503;BME280;40411;50.090;21.954;2022-11-15T02:51:21;150304.03;;;4.96;100.00
54503;BME280;40411;50.090;21.954;2022-11-15T02:54:05;150352.47;;;5.15;100.00
54503;BME280;40411;50.090;21.954;2022-11-15T02:56:53;150383.09;;;5.27;100.00
54503;BME280;40411;50.090;21.954;2022-11-15T03:05:41;150362.69;;;5.19;100.00
54503;BME280;40411;50.090;21.954;2022-11-15T03:11:17;150352.47;;;5.15;100.00
54503;BME280;40411;50.090;21.954;2022-11-15T03:14:12;150311.72;;;4.99;100.00
54503;BME280;40411;50.090;21.954;2022-11-15T03:17:03;150318.03;;;5.01;100.00
54503;BME280;40411;50.090;21.954;2022-11-15T03:19:58;150360.09;;;5.18;100.00
54503;BME280;40411;50.090;21.954;2022-11-15T03:22:44;150304.03;;;4.96;100.00
54503;BME280;40411;50.090;21.954;2022-11-15T03:25:31;150314.25;;;5.00;100.00
54503;BME280;40411;50.090;21.954;2022-11-15T03:28:25;150311.72;;;4.99;100.00
54503;BME280;40411;50.090;21.954;2022-11-15T03:31:14;150314.25;;;5.00;100.00
54503;BME280;40411;50.090;21.954;2022-11-15T03:34:29;150304.03;;;4.96;100.00
54503;BME280;40411;50.090;21.954;2022-11-15T03:37:17;150278.56;;;4.85;100.00
54503;BME280;40411;50.090;21.954;2022-11-15T03:40:05;150235.19;;;4.68;100.00
54503;BME280;40411;50.090;21.954;2022-11-15T03:43:11;150304.03;;;4.96;100.00
54503;BME280;40411;50.090;21.954;2022-11-15T03:46:45;150288.72;;;4.89;100.00
54503;BME280;40411;50.090;21.954;2022-11-15T03:49:25;150258.16;;;4.77;100.00
54503;BME280;40411;50.090;21.954;2022-11-15T03:52:12;150222.50;;;4.63;100.00
54503;BME280;40411;50.090;21.954;2022-11-15T03:54:57;150186.81;;;4.48;100.00
54503;BME280;40411;50.090;21.954;2022-11-15T03:57:44;150219.91;;;4.62;100.00
54503;BME280;40411;50.090;21.954;2022-11-15T04:00:29;150258.16;;;4.77;100.00
54503;BME280;40411;50.090;21.954;2022-11-15T04:03:13;150213.53;;;4.59;100.00
54503;BME280;40411;50.090;21.954;2022-11-15T04:05:58;150208.47;;;4.57;100.00
54503;BME280;40411;50.090;21.954;2022-11-15T04:08:42;150200.84;;;4.54;100.00
54503;BME280;40411;50.090;21.954;2022-11-15T04:11:27;150199.50;;;4.54;100.00
54503;BME280;40411;50.090;21.954;2022-11-15T04:14:11;150151.09;;;4.34;100.00
54503;BME280;40411;50.090;21.954;2022-11-15T04:16:55;150133.28;;;4.27;100.00
54503;BME280;40411;50.090;21.954;2022-11-15T04:19:40;150097.63;;;4.13;100.00
54503;BME280;40411;50.090;21.954;2022-11-15T04:22:43;150138.41;;;4.29;100.00
54503;BME280;40411;50.090;21.954;2022-11-15T04:25:49;150202.09;;;4.55;100.00
54503;BME280;40411;50.090;21.954;2022-11-15T04:28:35;150147.31;;;4.33;100.00
54503;BME280;40411;50.090;21.954;2022-11-15T04:31:19;150166.44;;;4.40;100.00
54503;BME280;40411;50.090;21.954;2022-11-15T04:34:04;150188.09;;;4.49;100.00
54503;BME280;40411;50.090;21.954;2022-11-15T04:36:48;150143.47;;;4.31;100.00
54503;BME280;40411;50.090;21.954;2022-11-15T04:39:51;150156.22;;;4.36;100.00
54503;BME280;40411;50.090;21.954;2022-11-15T04:42:35;150168.97;;;4.41;100.00
54503;BME280;40411;50.090;21.954;2022-11-15T04:45:20;150107.81;;;4.17;100.00
54503;BME280;40411;50.090;21.954;2022-11-15T04:48:04;150102.69;;;4.15;100.00
54503;BME280;40411;50.090;21.954;2022-11-15T04:50:49;150074.66;;;4.03;100.00
54503;BME280;40411;50.090;21.954;2022-11-15T04:53:33;150044.13;;;3.91;100.00
54503;BME280;40411;50.090;21.954;2022-11-15T04:56:17;150026.28;;;3.84;100.00
54503;BME280;40411;50.090;21.954;2022-11-15T04:59:02;150003.38;;;3.75;100.00
54503;BME280;40411;50.090;21.954;2022-11-15T05:01:46;150028.84;;;3.85;100.00
54503;BME280;40411;50.090;21.954;2022-11-15T05:04:31;150040.28;;;3.90;100.00
54503;BME280;40411;50.090;21.954;2022-11-15T05:07:15;150079.78;;;4.06;100.00
54503;BME280;40411;50.090;21.954;2022-11-15T05:09:59;150054.28;;;3.95;100.00
54503;BME280;40411;50.090;21.954;2022-11-15T05:12:44;150072.13;;;4.02;100.00
54503;BME280;40411;50.090;21.954;2022-11-15T05:15:28;150059.41;;;3.97;100.00
54503;BME280;40411;50.090;21.954;2022-11-15T05:18:13;150083.63;;;4.07;100.00
54503;BME280;40411;50.090;21.954;2022-11-15T05:21:13;150092.53;;;4.11;100.00
54503;BME280;40411;50.090;21.954;2022-11-15T05:23:58;150016.09;;;3.80;100.00
54503;BME280;40411;50.090;21.954;2022-11-15T05:26:42;150028.84;;;3.85;100.00
54503;BME280;40411;50.090;21.954;2022-11-15T05:29:27;150012.25;;;3.78;100.00
54503;BME280;40411;50.090;21.954;2022-11-15T05:32:12;149906.59;;;3.36;100.00
54503;BME280;40411;50.090;21.954;2022-11-15T05:34:57;149935.84;;;3.48;100.00
54503;BME280;40411;50.090;21.954;2022-11-15T05:37:41;149940.97;;;3.50;100.00
54503;BME280;40411;50.090;21.954;2022-11-15T05:40:27;149795.84;;;2.91;100.00
54503;BME280;40411;50.090;21.954;2022-11-15T05:43:13;149817.47;;;3.00;100.00
54503;BME280;40411;50.090;21.954;2022-11-15T05:45:58;149775.47;;;2.83;100.00
54503;BME280;40411;50.090;21.954;2022-11-15T05:48:46;149807.31;;;2.96;100.00
54503;BME280;40411;50.090;21.954;2022-11-15T05:51:33;149784.38;;;2.87;100.00
54503;BME280;40411;50.090;21.954;2022-11-15T05:54:19;149858.22;;;3.17;100.00
54503;BME280;40411;50.090;21.954;2022-11-15T05:57:04;149849.31;;;3.13;100.00
54503;BME280;40411;50.090;21.954;2022-11-15T05:59:49;149896.44;;;3.32;100.00
54503;BME280;40411;50.090;21.954;2022-11-15T06:02:33;149853.13;;;3.14;100.00
54503;BME280;40411;50.090;21.954;2022-11-15T06:05:18;149818.75;;;3.01;100.00
54503;BME280;40411;50.090;21.954;2022-11-15T06:08:03;149879.84;;;3.25;100.00
54503;BME280;40411;50.090;21.954;2022-11-15T06:10:47;149919.31;;;3.41;100.00
54503;BME280;40411;50.090;21.954;2022-11-15T06:13:33;149924.44;;;3.43;100.00
54503;BME280;40411;50.090;21.954;2022-11-15T06:16:17;149926.97;;;3.44;100.00
54503;BME280;40411;50.090;21.954;2022-11-15T06:19:02;149974.09;;;3.63;100.00
54503;BME280;40411;50.090;21.954;2022-11-15T06:21:46;149968.97;;;3.61;100.00
54503;BME280;40411;50.090;21.954;2022-11-15T06:24:31;149982.97;;;3.67;100.00
54503;BME280;40411;50.090;21.954;2022-11-15T06:27:16;150028.84;;;3.85;100.00
54503;BME280;40411;50.090;21.954;2022-11-15T06:30:00;150058.13;;;3.97;100.00
54503;BME280;40411;50.090;21.954;2022-11-15T06:32:45;149961.34;;;3.58;100.00
54503;BME280;40411;50.090;21.954;2022-11-15T06:35:30;149853.13;;;3.14;100.00
54503;BME280;40411;50.090;21.954;2022-11-15T06:38:16;149888.78;;;3.29;100.00
54503;BME280;40411;50.090;21.954;2022-11-15T06:41:06;149898.97;;;3.33;100.00
54503;BME280;40411;50.090;21.954;2022-11-15T06:43:50;149921.84;;;3.42;100.00
54503;BME280;40411;50.090;21.954;2022-11-15T06:46:34;150009.72;;;3.77;100.00
54503;BME280;40411;50.090;21.954;2022-11-15T06:49:18;150059.41;;;3.97;100.00
54503;BME280;40411;50.090;21.954;2022-11-15T06:52:03;150087.41;;;4.09;100.00
54503;BME280;40411;50.090;21.954;2022-11-15T06:54:47;150028.84;;;3.85;100.00
54503;BME280;40411;50.090;21.954;2022-11-15T06:57:32;150109.06;;;4.17;100.00
54503;BME280;40411;50.090;21.954;2022-11-15T07:00:18;150112.91;;;4.19;100.00
54503;BME280;40411;50.090;21.954;2022-11-15T07:03:03;150102.69;;;4.15;100.00
54503;BME280;40411;50.090;21.954;2022-11-15T07:05:54;150046.66;;;3.92;100.00
54503;BME280;40411;50.090;21.954;2022-11-15T07:08:39;150033.91;;;3.87;100.00
54503;BME280;40411;50.090;21.954;2022-11-15T07:11:25;150003.38;;;3.75;100.00
54503;BME280;40411;50.090;21.954;2022-11-15T07:14:10;150075.97;;;4.04;100.00
54503;BME280;40411;50.090;21.954;2022-11-15T07:16:55;150185.50;;;4.48;100.00
54503;BME280;40411;50.090;21.954;2022-11-15T07:19:39;150233.94;;;4.67;100.00
54503;BME280;40411;50.090;21.954;2022-11-15T07:22:24;150087.41;;;4.09;100.00
54503;BME280;40411;50.090;21.954;2022-11-15T07:25:09;150072.13;;;4.02;100.00
54503;BME280;40411;50.090;21.954;2022-11-15T07:27:57;150082.31;;;4.07;100.00
54503;BME280;40411;50.090;21.954;2022-11-15T07:30:41;150069.59;;;4.01;100.00
54503;BME280;40411;50.090;21.954;2022-11-15T07:33:25;150110.31;;;4.18;100.00
54503;BME280;40411;50.090;21.954;2022-11-15T07:36:10;150138.41;;;4.29;100.00
54503;BME280;40411;50.090;21.954;2022-11-15T07:38:54;150125.66;;;4.24;100.00
54503;BME280;40411;50.090;21.954;2022-11-15T07:41:39;150219.91;;;4.62;100.00
54503;BME280;40411;50.090;21.954;2022-11-15T07:44:23;150316.78;;;5.01;100.00
54503;BME280;40411;50.090;21.954;2022-11-15T07:47:08;150273.44;;;4.83;100.00
54503;BME280;40411;50.090;21.954;2022-11-15T07:49:52;150283.63;;;4.87;100.00
54503;BME280;40411;50.090;21.954;2022-11-15T07:52:36;150268.34;;;4.81;100.00
54503;BME280;40411;50.090;21.954;2022-11-15T07:55:22;150309.13;;;4.98;100.00
54503;BME280;40411;50.090;21.954;2022-11-15T07:58:09;150293.84;;;4.91;100.00
54503;BME280;40411;50.090;21.954;2022-11-15T08:00:53;150268.34;;;4.81;100.00
54503;BME280;40411;50.090;21.954;2022-11-15T08:03:39;150404.75;;;5.36;100.00
54503;BME280;40411;50.090;21.954;2022-11-15T08:06:23;150312.97;;;4.99;100.00
54503;BME280;40411;50.090;21.954;2022-11-15T08:09:08;150487.63;;;5.69;100.00
54503;BME280;40411;50.090;21.954;2022-11-15T08:11:52;150658.59;;;6.38;100.00
54503;BME280;40411;50.090;21.954;2022-11-15T08:14:36;150679.00;;;6.46;100.00
54503;BME280;40411;50.090;21.954;2022-11-15T08:17:21;150645.88;;;6.33;100.00
54503;BME280;40411;50.090;21.954;2022-11-15T08:20:06;150781.13;;;6.87;100.00
54503;BME280;40411;50.090;21.954;2022-11-15T08:22:51;151110.59;;;8.19;100.00
54503;BME280;40411;50.090;21.954;2022-11-15T08:25:36;151289.56;;;8.90;100.00
54503;BME280;40411;50.090;21.954;2022-11-15T08:28:20;151537.66;;;9.90;100.00
54503;BME280;40411;50.090;21.954;2022-11-15T08:31:05;151657.94;;;10.38;100.00
54503;BME280;40411;50.090;21.954;2022-11-15T08:33:50;151821.78;;;11.03;100.00
54503;BME280;40411;50.090;21.954;2022-11-15T08:36:34;151711.69;;;10.59;100.00
54503;BME280;40411;50.090;21.954;2022-11-15T08:39:19;151698.91;;;10.54;100.00
54503;BME280;40411;50.090;21.954;2022-11-15T08:42:04;151816.66;;;11.01;100.00
54503;BME280;40411;50.090;21.954;2022-11-15T08:44:48;151761.59;;;10.79;100.00
54503;BME280;40411;50.090;21.954;2022-11-15T08:47:33;151803.84;;;10.96;100.00
54503;BME280;40411;50.090;21.954;2022-11-15T08:50:18;151908.84;;;11.38;100.00
54503;BME280;40411;50.090;21.954;2022-11-15T08:53:06;151969.03;;;11.62;100.00
54503;BME280;40411;50.090;21.954;2022-11-15T08:55:51;151990.81;;;11.71;100.00
54503;BME280;40411;50.090;21.954;2022-11-15T08:58:36;151939.53;;;11.50;100.00
54503;BME280;40411;50.090;21.954;2022-11-15T09:01:21;151979.25;;;11.66;100.00
54503;BME280;40411;50.090;21.954;2022-11-15T09:04:05;151867.84;;;11.22;100.00
54503;BME280;40411;50.090;21.954;2022-11-15T09:06:49;152011.31;;;11.79;100.00
54503;BME280;40411;50.090;21.954;2022-11-15T09:09:34;152190.66;;;12.50;100.00
54503;BME280;40411;50.090;21.954;2022-11-15T09:12:18;152017.72;;;11.81;100.00
54503;BME280;40411;50.090;21.954;2022-11-15T09:15:04;152288.06;;;12.89;100.00
54503;BME280;40411;50.090;21.954;2022-11-15T09:17:49;152262.47;;;12.79;100.00
54503;BME280;40411;50.090;21.954;2022-11-15T09:20:34;152120.19;;;12.22;100.00
54503;BME280;40411;50.090;21.954;2022-11-15T09:23:18;152031.84;;;11.87;100.00
54503;BME280;40411;50.090;21.954;2022-11-15T09:26:04;152267.56;;;12.81;100.00
54503;BME280;40411;50.090;21.954;2022-11-15T09:28:48;152499.72;;;13.74;100.00
54503;BME280;40411;50.090;21.954;2022-11-15T09:31:33;152152.25;;;12.35;100.00
54503;BME280;40411;50.090;21.954;2022-11-15T09:34:17;152252.19;;;12.75;100.00
54503;BME280;40411;50.090;21.954;2022-11-15T09:37:02;152363.72;;;13.19;100.00
54503;BME280;40411;50.090;21.954;2022-11-15T09:39:46;152611.31;;;14.18;100.00
54503;BME280;40411;50.090;21.954;2022-11-15T09:48:51;152222.72;;;12.63;100.00
54503;BME280;40411;50.090;21.954;2022-11-15T09:51:53;152350.88;;;13.14;100.00
54503;BME280;40411;50.090;21.954;2022-11-15T09:54:29;152411.22;;;13.38;100.00
54503;BME280;40411;50.090;21.954;2022-11-15T09:57:02;152211.19;;;12.59;100.00
54503;BME280;40411;50.090;21.954;2022-11-15T10:04:49;152331.69;;;13.07;100.00
54503;BME280;40411;50.090;21.954;2022-11-15T10:07:21;152575.34;;;14.04;100.00
54503;BME280;40411;50.090;21.954;2022-11-15T10:09:58;152602.28;;;14.15;100.00
54503;BME280;40411;50.090;21.954;2022-11-15T10:12:27;152257.34;;;12.77;100.00
54503;BME280;40411;50.090;21.954;2022-11-15T10:15:03;152562.56;;;13.99;100.00
54503;BME280;40411;50.090;21.954;2022-11-15T10:20:27;152271.44;;;12.83;100.00
54503;BME280;40411;50.090;21.954;2022-11-15T10:22:56;151988.22;;;11.70;100.00
54503;BME280;40411;50.090;21.954;2022-11-15T10:25:27;151742.41;;;10.71;100.00
54503;BME280;40411;50.090;21.954;2022-11-15T10:27:58;151706.56;;;10.57;100.00
54503;BME280;40411;50.090;21.954;2022-11-15T10:30:37;151616.94;;;10.21;100.00
54503;BME280;40411;50.090;21.954;2022-11-15T10:35:44;151670.75;;;10.43;100.00
54503;BME280;40411;50.090;21.954;2022-11-15T10:38:11;151532.50;;;9.88;100.00
54503;BME280;40411;50.090;21.954;2022-11-15T10:40:39;151538.91;;;9.90;100.00
54503;BME280;40411;50.090;21.954;2022-11-15T10:45:33;151682.28;;;10.47;100.00
54503;BME280;40411;50.090;21.954;2022-11-15T10:50:39;151620.81;;;10.23;100.00
54503;BME280;40411;50.090;21.954;2022-11-15T10:53:18;151613.13;;;10.20;100.00
54503;BME280;40411;50.090;21.954;2022-11-15T10:55:49;151743.66;;;10.72;100.00
54503;BME280;40411;50.090;21.954;2022-11-15T10:58:39;151879.38;;;11.26;100.00
54503;BME280;40411;50.090;21.954;2022-11-15T11:01:17;151926.78;;;11.45;100.00
54503;BME280;40411;50.090;21.954;2022-11-15T11:03:45;152010.03;;;11.78;100.00
54503;BME280;40411;50.090;21.954;2022-11-15T11:06:22;151957.50;;;11.57;100.00
54503;BME280;40411;50.090;21.954;2022-11-15T11:09:00;151824.34;;;11.04;100.00
54503;BME280;40411;50.090;21.954;2022-11-15T11:11:48;151768.00;;;10.82;100.00
54503;BME280;40411;50.090;21.954;2022-11-15T11:14:29;151929.31;;;11.46;100.00
54503;BME280;40411;50.090;21.954;2022-11-15T11:20:04;151947.28;;;11.53;100.00
54503;BME280;40411;50.090;21.954;2022-11-15T11:23:00;152044.59;;;11.92;100.00
54503;BME280;40411;50.090;21.954;2022-11-15T11:28:30;152198.34;;;12.53;100.00
54503;BME280;40411;50.090;21.954;2022-11-15T11:33:52;152347.06;;;13.13;100.00
54503;BME280;40411;50.090;21.954;2022-11-15T11:39:19;152542.03;;;13.91;100.00
54503;BME280;40411;50.090;21.954;2022-11-15T11:41:59;152490.69;;;13.70;100.00
54503;BME280;40411;50.090;21.954;2022-11-15T11:47:22;152865.44;;;15.19;100.00
54503;BME280;40411;50.090;21.954;2022-11-15T11:49:56;153189.09;;;16.48;100.00
54503;BME280;40411;50.090;21.954;2022-11-15T11:52:44;152914.22;;;15.39;100.00
54503;BME280;40411;50.090;21.954;2022-11-15T11:55:14;152984.81;;;15.67;100.00
54503;BME280;40411;50.090;21.954;2022-11-15T12:00:35;153196.78;;;16.51;97.91
54503;BME280;40411;50.090;21.954;2022-11-15T12:03:19;153147.97;;;16.32;97.78
54503;BME280;40411;50.090;21.954;2022-11-15T12:05:54;153253.31;;;16.74;96.41
54503;BME280;40411;50.090;21.954;2022-11-15T12:08:43;153105.59;;;16.15;96.58
54503;BME280;40411;50.090;21.954;2022-11-15T12:16:47;153096.59;;;16.12;96.82
54503;BME280;40411;50.090;21.954;2022-11-15T12:19:13;153195.53;;;16.51;95.57
54503;BME280;40411;50.090;21.954;2022-11-15T12:21:44;153286.78;;;16.87;95.17
54503;BME280;40411;50.090;21.954;2022-11-15T12:24:19;153348.50;;;17.12;92.80
54503;BME280;40411;50.090;21.954;2022-11-15T12:26:54;153402.50;;;17.33;93.69
54503;BME280;40411;50.090;21.954;2022-11-15T12:29:43;153380.66;;;17.25;91.53
54503;BME280;40411;50.090;21.954;2022-11-15T12:32:24;153338.22;;;17.08;92.35
54503;BME280;40411;50.090;21.954;2022-11-15T12:34:51;153279.09;;;16.84;91.72
54503;BME280;40411;50.090;21.954;2022-11-15T12:37:44;153246.91;;;16.71;94.81
54503;BME280;40411;50.090;21.954;2022-11-15T12:42:42;153055.50;;;15.95;100.00
54503;BME280;40411;50.090;21.954;2022-11-15T12:45:44;153018.28;;;15.80;100.00
54503;BME280;40411;50.090;21.954;2022-11-15T13:01:10;152559.97;;;13.98;100.00
54503;BME280;40411;50.090;21.954;2022-11-15T13:06:57;152590.78;;;14.10;100.00
54503;BME280;40411;50.090;21.954;2022-11-15T13:17:30;152440.69;;;13.50;100.00
54503;BME280;40411;50.090;21.954;2022-11-15T13:22:38;152286.81;;;12.89;100.00
54503;BME280;40411;50.090;21.954;2022-11-15T13:33:17;152183.00;;;12.47;100.00
54503;BME280;40411;50.090;21.954;2022-11-15T13:35:46;152145.84;;;12.33;100.00
54503;BME280;40411;50.090;21.954;2022-11-15T13:40:52;152101.03;;;12.15;100.00
54503;BME280;40411;50.090;21.954;2022-11-15T13:48:35;152048.47;;;11.94;100.00
54503;BME280;40411;50.090;21.954;2022-11-15T13:51:04;152039.53;;;11.90;100.00
54503;BME280;40411;50.090;21.954;2022-11-15T13:53:32;152001.03;;;11.75;100.00
54503;BME280;40411;50.090;21.954;2022-11-15T13:55:59;151995.88;;;11.73;100.00
54503;BME280;40411;50.090;21.954;2022-11-15T13:58:25;151995.88;;;11.73;100.00
54503;BME280;40411;50.090;21.954;2022-11-15T14:00:59;151975.44;;;11.65;100.00
54503;BME280;40411;50.090;21.954;2022-11-15T14:03:34;151944.69;;;11.52;100.00
54503;BME280;40411;50.090;21.954;2022-11-15T14:06:24;151947.28;;;11.53;100.00
54503;BME280;40411;50.090;21.954;2022-11-15T14:11:26;151908.84;;;11.38;100.00
54503;BME280;40411;50.090;21.954;2022-11-15T14:16:38;151797.44;;;10.93;100.00
54503;BME280;40411;50.090;21.954;2022-11-15T14:19:05;151782.09;;;10.87;100.00
54503;BME280;40411;50.090;21.954;2022-11-15T14:21:32;151782.09;;;10.87;100.00
54503;BME280;40411;50.090;21.954;2022-11-15T14:24:17;151692.50;;;10.51;100.00
54503;BME280;40411;50.090;21.954;2022-11-15T14:26:44;151686.09;;;10.49;100.00
54503;BME280;40411;50.090;21.954;2022-11-15T14:29:26;151641.31;;;10.31;100.00
54503;BME280;40411;50.090;21.954;2022-11-15T14:32:12;151591.34;;;10.11;100.00
54503;BME280;40411;50.090;21.954;2022-11-15T14:34:38;151570.91;;;10.03;100.00
54503;BME280;40411;50.090;21.954;2022-11-15T14:37:04;151535.06;;;9.89;100.00
54503;BME280;40411;50.090;21.954;2022-11-15T14:39:30;151483.91;;;9.68;100.00
54503;BME280;40411;50.090;21.954;2022-11-15T14:41:56;151432.78;;;9.48;100.00
54503;BME280;40411;50.090;21.954;2022-11-15T14:44:22;151419.97;;;9.43;100.00
54503;BME280;40411;50.090;21.954;2022-11-15T14:46:47;151380.31;;;9.27;100.00
54503;BME280;40411;50.090;21.954;2022-11-15T14:49:14;151338.13;;;9.10;100.00
54503;BME280;40411;50.090;21.954;2022-11-15T14:51:41;151310.00;;;8.99;100.00
54503;BME280;40411;50.090;21.954;2022-11-15T14:54:10;151295.94;;;8.93;100.00
54503;BME280;40411;50.090;21.954;2022-11-15T14:56:36;151315.13;;;9.01;100.00
54503;BME280;40411;50.090;21.954;2022-11-15T14:59:01;151283.16;;;8.88;100.00
54503;BME280;40411;50.090;21.954;2022-11-15T15:01:28;151297.22;;;8.93;100.00
54503;BME280;40411;50.090;21.954;2022-11-15T15:03:54;151293.41;;;8.92;100.00
54503;BME280;40411;50.090;21.954;2022-11-15T15:06:23;151284.44;;;8.88;100.00
54503;BME280;40411;50.090;21.954;2022-11-15T15:08:48;151281.88;;;8.87;100.00
54503;BME280;40411;50.090;21.954;2022-11-15T15:11:21;151324.06;;;9.04;100.00
54503;BME280;40411;50.090;21.954;2022-11-15T15:13:47;151350.94;;;9.15;100.00
54503;BME280;40411;50.090;21.954;2022-11-15T15:16:13;151354.78;;;9.16;100.00
54503;BME280;40411;50.090;21.954;2022-11-15T15:18:39;151402.06;;;9.35;100.00
54503;BME280;40411;50.090;21.954;2022-11-15T15:21:18;151380.31;;;9.27;100.00
54503;BME280;40411;50.090;21.954;2022-11-15T15:23:44;151409.72;;;9.38;100.00
54503;BME280;40411;50.090;21.954;2022-11-15T15:26:10;151421.25;;;9.43;100.00
54503;BME280;40411;50.090;21.954;2022-11-15T15:28:36;151448.09;;;9.54;100.00
54503;BME280;40411;50.090;21.954;2022-11-15T15:31:04;151450.66;;;9.55;100.00
54503;BME280;40411;50.090;21.954;2022-11-15T15:33:29;151464.72;;;9.60;100.00
54503;BME280;40411;50.090;21.954;2022-11-15T15:35:55;151463.44;;;9.60;100.00
54503;BME280;40411;50.090;21.954;2022-11-15T15:38:21;151448.09;;;9.54;100.00
54503;BME280;40411;50.090;21.954;2022-11-15T15:40:47;151388.00;;;9.30;100.00
54503;BME280;40411;50.090;21.954;2022-11-15T15:43:13;151379.06;;;9.26;100.00
54503;BME280;40411;50.090;21.954;2022-11-15T15:45:40;151294.69;;;8.92;100.00
54503;BME280;40411;50.090;21.954;2022-11-15T15:48:14;151297.22;;;8.93;100.00
54503;BME280;40411;50.090;21.954;2022-11-15T15:50:40;151275.50;;;8.85;100.00
54503;BME280;40411;50.090;21.954;2022-11-15T15:53:09;151233.31;;;8.68;100.00
54503;BME280;40411;50.090;21.954;2022-11-15T15:55:39;151202.66;;;8.56;100.00
54503;BME280;40411;50.090;21.954;2022-11-15T15:58:05;151197.53;;;8.54;100.00